Time;durP1;ratioP1;P1;durP2;ratioP2;P2;SDS_P1;SDS_P2;PMS_P1;PMS_P2;Temp;Humidity;BMP_temperature;BMP_pressure;BME280_temperature;BME280_humidity;BME280_pressure;Samples;Min_cycle;Max_cycle;Signal;HPM_P1;HPM_P2
2023/02/13 00:00:09;;;;;;;39.78;28.98;;;;;;;8.32;100.00;103624.53;5259476;28;20064;-72
2023/02/13 00:02:40;;;;;;;38.83;27.27;;;;;;;8.24;100.00;103610.84;5266223;28;20075;-72
2023/02/13 00:05:12;;;;;;;41.30;27.48;;;;;;;8.17;100.00;103604.09;5269761;28;20350;-72
2023/02/13 00:07:43;;;;;;;42.35;27.10;;;;;;;8.23;100.00;103614.38;5264006;28;20494;-72
2023/02/13 00:10:15;;;;;;;36.67;26.50;;;;;;;8.32;100.00;103611.47;5260777;28;20029;-72
2023/02/13 00:12:46;;;;;;;35.60;25.67;;;;;;;8.29;100.00;103611.56;5255678;28;20021;-72
2023/02/13 00:15:17;;;;;;;42.45;27.27;;;;;;;8.31;100.00;103601.09;5258816;28;20029;-72
2023/02/13 00:17:48;;;;;;;37.38;26.73;;;;;;;8.33;100.00;103605.31;5265346;28;20135;-72
2023/02/13 00:20:20;;;;;;;38.05;27.35;;;;;;;8.31;100.00;103604.53;5267367;28;20032;-72
2023/02/13 00:22:51;;;;;;;39.95;27.15;;;;;;;8.34;100.00;103599.22;5262029;28;20028;-72
2023/02/13 00:25:22;;;;;;;41.45;27.75;;;;;;;8.35;100.00;103598.31;5266783;28;20029;-72
2023/02/13 00:27:54;;;;;;;38.95;26.92;;;;;;;8.34;100.00;103603.59;5260606;28;20064;-72
2023/02/13 00:30:25;;;;;;;38.88;26.77;;;;;;;8.24;100.00;103582.13;5260686;28;20025;-72
2023/02/13 00:32:56;;;;;;;40.40;28.15;;;;;;;8.34;100.00;103594.00;5263247;28;20037;-72
2023/02/13 00:35:27;;;;;;;39.70;28.23;;;;;;;8.34;100.00;103603.59;5261909;28;20032;-71
2023/02/13 00:37:59;;;;;;;41.28;27.88;;;;;;;8.31;100.00;103595.84;5260563;28;20029;-72
2023/02/13 00:40:30;;;;;;;39.20;27.48;;;;;;;8.32;100.00;103589.72;5266811;28;20086;-72
2023/02/13 00:43:01;;;;;;;39.70;27.10;;;;;;;8.29;100.00;103590.66;5261542;28;20036;-72
2023/02/13 00:45:33;;;;;;;41.47;28.17;;;;;;;8.34;100.00;103591.41;5266355;28;20027;-72
2023/02/13 00:48:04;;;;;;;40.92;28.65;;;;;;;8.33;100.00;103583.59;5248252;28;20036;-72
2023/02/13 00:50:35;;;;;;;41.75;29.30;;;;;;;8.32;100.00;103585.34;5261907;28;20081;-72
2023/02/13 00:53:06;;;;;;;40.30;28.17;;;;;;;8.31;100.00;103588.03;5263675;28;20059;-72
2023/02/13 00:55:38;;;;;;;39.72;27.80;;;;;;;8.31;100.00;103594.09;5263119;28;20077;-72
2023/02/13 00:58:09;;;;;;;39.05;28.60;;;;;;;8.30;100.00;103595.00;5260347;28;20021;-72
2023/02/13 01:00:41;;;;;;;38.88;27.80;;;;;;;8.27;100.00;103582.03;5260840;28;20474;-72
2023/02/13 01:03:13;;;;;;;41.30;28.05;;;;;;;8.28;100.00;103592.41;5261198;28;20032;-71
2023/02/13 01:05:45;;;;;;;37.80;28.27;;;;;;;8.22;100.00;103582.19;5243710;28;21115;-72
2023/02/13 01:08:18;;;;;;;38.35;27.38;;;;;;;8.29;100.00;103585.44;5260759;28;20032;-72
2023/02/13 01:10:50;;;;;;;39.75;27.65;;;;;;;8.27;100.00;103593.34;5260704;28;20099;-72
2023/02/13 01:13:21;;;;;;;39.88;28.25;;;;;;;8.25;100.00;103596.88;5266222;28;20481;-72
2023/02/13 01:15:53;;;;;;;40.17;27.85;;;;;;;8.23;100.00;103601.31;5264866;28;20489;-72
2023/02/13 01:18:24;;;;;;;38.83;27.25;;;;;;;8.24;100.00;103597.78;5266370;28;20028;-72
2023/02/13 01:21:04;;;;;;;42.58;28.10;;;;;;;8.23;100.00;103581.28;5242722;28;20039;-71
2023/02/13 01:23:37;;;;;;;41.03;29.20;;;;;;;8.20;100.00;103588.34;5265356;28;20021;-72
2023/02/13 01:26:15;;;;;;;36.90;26.88;;;;;;;8.26;100.00;103596.00;5261520;28;20033;-71
2023/02/13 01:28:46;;;;;;;38.83;28.35;;;;;;;8.22;100.00;103578.69;5263419;28;20012;-72
2023/02/13 01:31:17;;;;;;;39.50;28.63;;;;;;;8.19;100.00;103573.59;5259471;28;20040;-72
2023/02/13 01:33:49;;;;;;;40.75;29.63;;;;;;;8.21;100.00;103574.38;5256491;28;20386;-72
2023/02/13 01:36:20;;;;;;;40.50;29.13;;;;;;;8.15;100.00;103575.44;5262127;28;20392;-72
2023/02/13 01:38:56;;;;;;;36.15;27.42;;;;;;;8.11;100.00;103581.66;5263767;28;20494;-72
2023/02/13 01:41:29;;;;;;;39.13;26.92;;;;;;;8.09;100.00;103575.63;5259858;28;20055;-72
2023/02/13 01:44:01;;;;;;;40.87;28.23;;;;;;;8.08;100.00;103583.50;5265201;28;20061;-72
2023/02/13 01:46:37;;;;;;;40.78;29.60;;;;;;;8.09;100.00;103580.84;5262413;28;20322;-70
2023/02/13 01:49:15;;;;;;;38.92;28.15;;;;;;;7.98;100.00;103575.94;5257141;28;20021;-71
2023/02/13 01:51:51;;;;;;;40.03;28.60;;;;;;;8.07;100.00;103567.00;5266898;28;20472;-71
2023/02/13 01:54:29;;;;;;;42.88;30.08;;;;;;;8.05;100.00;103571.38;5261586;28;20156;-71
2023/02/13 01:57:06;;;;;;;38.63;28.42;;;;;;;8.01;100.00;103568.00;5258959;28;20029;-71
2023/02/13 01:59:55;;;;;;;42.10;29.17;;;;;;;8.16;100.00;103571.06;5267147;28;20470;-71
2023/02/13 02:02:30;;;;;;;41.90;28.58;;;;;;;8.04;100.00;103573.16;5266323;28;20032;-71
2023/02/13 02:05:04;;;;;;;39.30;28.23;;;;;;;7.96;100.00;103563.84;5261885;28;20422;-71
2023/02/13 02:07:39;;;;;;;38.85;28.33;;;;;;;7.94;100.00;103571.72;5262209;28;20020;-70
2023/02/13 02:10:14;;;;;;;37.33;27.80;;;;;;;7.85;100.00;103573.75;5268344;28;20501;-70
2023/02/13 02:12:52;;;;;;;41.40;30.15;;;;;;;7.80;100.00;103572.13;5265504;28;20413;-72
2023/02/13 02:15:24;;;;;;;37.97;27.58;;;;;;;7.70;100.00;103575.06;5262009;28;20052;-71
2023/02/13 02:17:55;;;;;;;39.67;28.25;;;;;;;7.63;100.00;103570.91;5265050;28;20060;-71
2023/02/13 02:21:14;;;;;;;38.08;28.75;;;;;;;7.86;100.00;103568.47;5259719;28;20178;-70
2023/02/13 02:24:18;;;;;;;39.63;27.23;;;;;;;7.84;100.00;103567.69;5263472;28;20035;-70
2023/02/13 02:26:52;;;;;;;40.00;28.50;;;;;;;7.60;100.00;103573.59;5269317;28;20028;-70
2023/02/13 02:29:55;;;;;;;40.63;28.63;;;;;;;7.74;100.00;103566.25;5265672;28;20029;-71
2023/02/13 02:32:42;;;;;;;37.72;28.08;;;;;;;7.61;100.00;103570.94;5266742;28;20060;-71
2023/02/13 02:35:22;;;;;;;38.45;28.13;;;;;;;7.37;100.00;103563.81;5266436;28;20037;-71
2023/02/13 02:38:08;;;;;;;36.00;27.23;;;;;;;7.44;100.00;103565.34;5269378;28;20032;-71
2023/02/13 02:40:51;;;;;;;34.92;26.25;;;;;;;7.21;100.00;103563.38;5268725;28;20024;-71
2023/02/13 02:43:54;;;;;;;37.28;27.23;;;;;;;7.40;100.00;103558.53;5265808;28;20160;-71
2023/02/13 02:46:37;;;;;;;40.70;27.05;;;;;;;7.27;100.00;103547.56;5260342;28;20028;-70
2023/02/13 02:52:14;;;;;;;38.35;27.55;;;;;;;7.07;100.00;103550.72;5266501;28;20036;-70
2023/02/13 02:55:11;;;;;;;34.58;25.42;;;;;;;7.23;100.00;103556.34;5267764;28;20094;-71
2023/02/13 03:06:51;;;;;;;34.97;25.52;;;;;;;6.94;100.00;103560.63;5267982;28;20036;-71
2023/02/13 03:15:14;;;;;;;36.95;26.23;;;;;;;6.37;100.00;103555.09;5263931;28;20406;-70
2023/02/13 03:23:58;;;;;;;34.65;25.33;;;;;;;6.42;100.00;103555.84;5271198;28;20048;-70
2023/02/13 03:26:49;;;;;;;37.58;27.13;;;;;;;6.13;100.00;103548.69;5264978;28;20500;-70
2023/02/13 03:30:07;;;;;;;32.67;24.23;;;;;;;6.43;100.00;103542.78;5266973;28;20075;-72
2023/02/13 03:32:56;;;;;;;38.47;27.50;;;;;;;6.27;100.00;103551.84;5267457;28;20793;-72
2023/02/13 03:38:28;;;;;;;35.80;25.35;;;;;;;6.07;100.00;103549.72;5268796;28;20028;-70
2023/02/13 03:41:19;;;;;;;37.22;25.83;;;;;;;6.00;100.00;103551.59;5270806;28;20427;-71
2023/02/13 03:44:07;;;;;;;36.47;26.33;;;;;;;6.14;100.00;103556.50;5268742;28;20034;-70
2023/02/13 03:46:43;;;;;;;31.80;24.77;;;;;;;5.92;100.00;103561.31;5266544;28;20024;-70
2023/02/13 03:52:35;;;;;;;33.03;24.60;;;;;;;6.11;100.00;103566.13;5258989;28;20044;-70
2023/02/13 04:01:03;;;;;;;34.72;25.73;;;;;;;5.68;100.00;103561.78;5264847;28;20394;-70
2023/02/13 04:03:39;;;;;;;37.33;25.05;;;;;;;5.79;100.00;103571.06;5266186;28;20029;-70
2023/02/13 04:06:14;;;;;;;34.88;24.95;;;;;;;5.60;100.00;103567.13;5264316;28;20076;-70
2023/02/13 04:08:45;;;;;;;37.85;26.13;;;;;;;5.39;100.00;103558.03;5265091;28;20028;-71
2023/02/13 04:11:43;;;;;;;36.22;25.58;;;;;;;5.60;100.00;103570.59;5264582;28;20036;-70
2023/02/13 04:14:23;;;;;;;36.78;25.30;;;;;;;5.52;100.00;103563.84;5236690;28;20505;-71
2023/02/13 04:17:11;;;;;;;36.42;24.80;;;;;;;5.47;100.00;103563.09;5263515;28;20029;-70
2023/02/13 04:19:42;;;;;;;34.58;24.85;;;;;;;5.36;100.00;103564.13;5261527;28;20044;-70
2023/02/13 04:22:14;;;;;;;37.20;26.00;;;;;;;5.28;100.00;103550.44;5261453;28;20389;-70
2023/02/13 04:24:46;;;;;;;34.70;25.33;;;;;;;5.23;100.00;103548.81;5264345;28;20481;-70
2023/02/13 04:27:17;;;;;;;33.72;25.10;;;;;;;5.21;100.00;103550.59;5267382;28;20073;-70
2023/02/13 04:29:48;;;;;;;33.28;23.90;;;;;;;5.24;100.00;103558.34;5259081;28;20017;-70
2023/02/13 04:32:20;;;;;;;35.08;25.35;;;;;;;5.21;100.00;103548.00;5266594;28;20024;-70
2023/02/13 04:34:51;;;;;;;35.38;24.38;;;;;;;5.11;100.00;103550.78;5257478;28;20027;-69
2023/02/13 04:37:23;;;;;;;36.78;25.42;;;;;;;5.05;100.00;103556.06;5265422;28;20070;-72
2023/02/13 04:39:54;;;;;;;38.30;26.15;;;;;;;5.02;100.00;103561.31;5261770;28;20056;-70
2023/02/13 04:42:25;;;;;;;37.65;25.15;;;;;;;4.99;100.00;103555.31;5261048;28;20460;-70
2023/02/13 04:44:57;;;;;;;35.15;25.70;;;;;;;5.02;100.00;103558.72;5262133;28;20593;-70
2023/02/13 04:47:28;;;;;;;34.95;24.55;;;;;;;4.99;100.00;103555.31;5264348;28;20365;-70
2023/02/13 04:49:59;;;;;;;37.42;25.02;;;;;;;4.89;100.00;103554.63;5263956;28;20032;-70
2023/02/13 04:52:30;;;;;;;32.45;24.73;;;;;;;4.87;100.00;103559.00;5261290;28;20040;-71
2023/02/13 04:55:02;;;;;;;32.20;23.05;;;;;;;4.77;100.00;103542.72;5242801;28;20057;-71
2023/02/13 04:57:34;;;;;;;34.38;23.45;;;;;;;4.78;100.00;103559.16;5229102;28;20025;-71
2023/02/13 05:00:06;;;;;;;36.22;25.60;;;;;;;4.77;100.00;103554.81;5236582;28;20037;-71
2023/02/13 05:02:37;;;;;;;34.65;23.85;;;;;;;4.80;100.00;103547.84;5248556;28;20116;-71
2023/02/13 05:05:08;;;;;;;35.42;24.83;;;;;;;4.77;100.00;103547.03;5242996;28;20104;-71
2023/02/13 05:07:41;;;;;;;33.25;23.70;;;;;;;4.68;100.00;103545.44;5239950;28;20029;-71
2023/02/13 05:10:12;;;;;;;35.10;25.27;;;;;;;4.63;100.00;103540.34;5238203;28;20622;-71
2023/02/13 05:12:43;;;;;;;34.75;24.45;;;;;;;4.64;100.00;103543.78;5243304;28;20146;-71
2023/02/13 05:15:15;;;;;;;36.50;25.20;;;;;;;4.60;100.00;103543.00;5245320;28;20053;-71
2023/02/13 05:17:46;;;;;;;35.78;24.33;;;;;;;4.55;100.00;103536.16;5240103;28;20339;-71
2023/02/13 05:20:18;;;;;;;34.95;25.40;;;;;;;4.52;100.00;103542.25;5245238;28;20041;-71
2023/02/13 05:25:41;;;;;;;35.50;24.05;;;;;;;4.48;100.00;103550.97;5243003;28;20037;-71
2023/02/13 05:31:10;;;;;;;34.03;24.08;;;;;;;4.42;100.00;103537.22;5215695;28;20037;-71
2023/02/13 05:33:41;;;;;;;34.38;23.88;;;;;;;4.43;100.00;103547.56;5239675;28;20384;-71
2023/02/13 05:36:12;;;;;;;35.28;25.17;;;;;;;4.39;100.00;103543.31;5241954;28;20033;-70
2023/02/13 05:38:44;;;;;;;35.75;25.23;;;;;;;4.36;100.00;103546.00;5244515;28;20037;-71
2023/02/13 05:41:15;;;;;;;33.38;23.60;;;;;;;4.34;100.00;103546.00;5241849;28;20056;-71
2023/02/13 05:43:46;;;;;;;32.25;23.55;;;;;;;4.32;100.00;103549.50;5242985;28;20171;-71
2023/02/13 05:46:17;;;;;;;34.28;24.05;;;;;;;4.27;100.00;103548.69;5231395;28;20040;-70
2023/02/13 05:48:50;;;;;;;31.13;22.52;;;;;;;4.28;100.00;103547.81;5230568;28;20108;-71
2023/02/13 05:51:21;;;;;;;31.50;22.23;;;;;;;4.22;100.00;103558.31;5236862;28;20101;-71
2023/02/13 05:53:52;;;;;;;38.95;23.20;;;;;;;4.22;100.00;103553.97;5235335;28;20486;-71
2023/02/13 05:56:24;;;;;;;35.28;24.42;;;;;;;4.24;100.00;103548.75;5242310;28;20037;-71
2023/02/13 05:58:56;;;;;;;36.43;22.93;;;;;;;4.25;100.00;103553.06;5241432;28;20046;-71
2023/02/13 06:01:27;;;;;;;37.08;23.95;;;;;;;4.18;100.00;103549.72;5241645;28;20459;-71
2023/02/13 06:03:59;;;;;;;32.33;23.40;;;;;;;4.14;100.00;103542.84;5243418;28;20036;-71
2023/02/13 06:06:30;;;;;;;34.35;23.83;;;;;;;4.12;100.00;103547.19;5243173;28;20106;-71
2023/02/13 06:09:02;;;;;;;33.88;23.98;;;;;;;4.11;100.00;103548.94;5235011;28;20034;-71
2023/02/13 06:11:33;;;;;;;35.10;24.27;;;;;;;4.01;100.00;103536.09;5237428;28;20139;-71
2023/02/13 06:14:05;;;;;;;35.40;23.35;;;;;;;4.09;100.00;103545.50;5237908;28;20678;-71
2023/02/13 06:16:36;;;;;;;30.77;22.52;;;;;;;4.03;100.00;103539.53;5241835;28;20055;-71
2023/02/13 06:19:07;;;;;;;36.40;23.42;;;;;;;4.01;100.00;103547.34;5243899;28;20032;-72
2023/02/13 06:21:39;;;;;;;31.70;22.58;;;;;;;3.95;100.00;103538.81;5240747;28;20036;-70
2023/02/13 06:24:10;;;;;;;32.65;23.40;;;;;;;3.94;100.00;103542.25;5235706;28;20029;-71
2023/02/13 06:26:41;;;;;;;32.08;22.25;;;;;;;3.90;100.00;103539.72;5244108;28;20099;-71
2023/02/13 06:29:12;;;;;;;34.95;23.17;;;;;;;3.85;100.00;103551.88;5238816;28;20076;-71
2023/02/13 06:31:44;;;;;;;32.30;23.05;;;;;;;3.85;100.00;103551.03;5244485;28;20079;-71
2023/02/13 06:34:15;;;;;;;32.22;23.08;;;;;;;3.81;100.00;103555.38;5246583;28;20025;-71
2023/02/13 06:36:46;;;;;;;31.27;21.67;;;;;;;3.78;100.00;103552.81;5246015;28;20036;-71
2023/02/13 06:39:18;;;;;;;31.55;21.83;;;;;;;3.79;100.00;103557.16;5246563;28;20082;-71
2023/02/13 06:41:49;;;;;;;32.47;22.25;;;;;;;3.76;100.00;103557.19;5242440;28;20489;-70
2023/02/13 06:44:20;;;;;;;30.00;22.27;;;;;;;3.73;100.00;103561.56;5244414;28;20512;-70
2023/02/13 06:46:52;;;;;;;31.48;22.55;;;;;;;3.70;100.00;103561.59;5248818;28;20760;-70
2023/02/13 06:49:23;;;;;;;33.50;23.70;;;;;;;3.65;100.00;103559.91;5242868;28;20021;-73
2023/02/13 06:51:54;;;;;;;31.38;22.60;;;;;;;3.61;100.00;103558.25;5224525;28;20026;-73
2023/02/13 06:54:26;;;;;;;33.38;24.05;;;;;;;3.63;100.00;103565.97;5245478;28;20048;-73
2023/02/13 06:56:57;;;;;;;33.08;22.10;;;;;;;3.58;100.00;103562.59;5246953;28;20094;-73
2023/02/13 06:59:28;;;;;;;33.78;24.00;;;;;;;3.63;100.00;103565.97;5240149;28;20017;-73
2023/02/13 07:01:59;;;;;;;33.40;22.55;;;;;;;3.60;100.00;103564.31;5249469;28;20103;-74
2023/02/13 07:04:31;;;;;;;32.33;21.98;;;;;;;3.57;100.00;103564.34;5246267;28;20033;-73
2023/02/13 07:07:02;;;;;;;31.73;23.50;;;;;;;3.53;100.00;103573.03;5244340;28;20032;-73
2023/02/13 07:09:33;;;;;;;33.55;23.42;;;;;;;3.53;100.00;103572.19;5248432;28;20022;-73
2023/02/13 07:12:05;;;;;;;34.90;21.90;;;;;;;3.45;100.00;103567.06;5244313;28;20113;-74
2023/02/13 07:14:36;;;;;;;30.27;21.13;;;;;;;3.47;100.00;103569.63;5244721;28;20036;-73
2023/02/13 07:17:09;;;;;;;32.08;22.13;;;;;;;3.50;100.00;103572.19;5252723;28;20048;-73
2023/02/13 07:19:41;;;;;;;;;;;;;;;4.17;100.00;103578.25;5253241;28;20032;-73
2023/02/13 07:22:12;;;;;;;31.67;21.80;;;;;;;3.60;100.00;103585.03;5244017;28;19921;-73
2023/02/13 07:24:43;;;;;;;33.45;22.17;;;;;;;3.56;100.00;103572.13;5247864;28;20082;-73
2023/02/13 07:27:14;;;;;;;34.70;23.65;;;;;;;3.60;100.00;103569.50;5237838;28;20035;-74
2023/02/13 07:29:46;;;;;;;34.03;23.88;;;;;;;3.59;100.00;103569.50;5243284;28;20028;-73
2023/02/13 07:32:17;;;;;;;34.08;23.02;;;;;;;3.59;100.00;103566.91;5241135;28;20033;-74
2023/02/13 07:34:48;;;;;;;32.30;21.15;;;;;;;3.58;100.00;103575.56;5253639;28;20061;-73
2023/02/13 07:37:19;;;;;;;31.70;23.20;;;;;;;3.60;100.00;103568.63;5252993;28;20367;-73
2023/02/13 07:39:51;;;;;;;33.97;23.88;;;;;;;3.60;100.00;103566.91;5251047;28;20021;-73
2023/02/13 07:42:22;;;;;;;34.28;23.73;;;;;;;3.58;100.00;103578.16;5223071;28;20106;-73
2023/02/13 07:44:53;;;;;;;32.72;22.52;;;;;;;3.60;100.00;103573.81;5242255;28;20115;-73
2023/02/13 07:47:24;;;;;;;35.47;23.30;;;;;;;3.61;100.00;103571.19;5242600;28;20493;-74
2023/02/13 07:49:56;;;;;;;33.65;23.20;;;;;;;3.67;100.00;103578.03;5240768;28;20048;-73
2023/02/13 07:52:27;;;;;;;33.10;23.08;;;;;;;3.69;100.00;103578.88;5243937;28;20140;-73
2023/02/13 07:54:58;;;;;;;32.15;22.60;;;;;;;3.72;100.00;103572.81;5251078;28;20052;-73
2023/02/13 07:57:30;;;;;;;32.22;22.17;;;;;;;3.84;100.00;103577.84;5243853;28;20492;-73
2023/02/13 08:00:02;;;;;;;32.30;22.40;;;;;;;3.83;100.00;103589.09;5242058;28;20057;-73
2023/02/13 08:02:34;;;;;;;30.73;21.92;;;;;;;3.79;100.00;103584.81;5246183;28;20029;-73
2023/02/13 08:05:06;;;;;;;35.35;23.33;;;;;;;3.84;100.00;103586.47;5244858;28;20288;-73
2023/02/13 08:07:37;;;;;;;32.53;23.52;;;;;;;3.86;100.00;103594.22;5249864;28;20029;-73
2023/02/13 08:13:01;;;;;;;35.28;24.52;;;;;;;3.89;100.00;103589.84;5245208;28;20041;-73
2023/02/13 08:15:32;;;;;;;33.40;23.02;;;;;;;3.88;100.00;103582.97;5239989;28;20037;-73
2023/02/13 08:18:04;;;;;;;37.22;25.45;;;;;;;4.02;100.00;103595.75;5249849;28;20170;-73
2023/02/13 08:20:35;;;;;;;37.83;24.60;;;;;;;4.11;100.00;103605.16;5242551;28;20029;-74
2023/02/13 08:23:09;;;;;;;35.85;24.23;;;;;;;4.15;100.00;103599.91;5246975;28;20036;-73
2023/02/13 08:25:40;;;;;;;38.03;25.38;;;;;;;4.13;100.00;103604.25;5242367;28;20044;-73
2023/02/13 08:28:12;;;;;;;35.80;25.27;;;;;;;4.19;100.00;103605.03;5248119;28;20017;-73
2023/02/13 08:30:43;;;;;;;37.05;24.33;;;;;;;4.25;100.00;103607.56;5237238;28;20021;-73
2023/02/13 08:33:14;;;;;;;35.60;24.42;;;;;;;4.28;100.00;103610.09;5239801;28;20051;-73
2023/02/13 08:35:46;;;;;;;38.00;24.35;;;;;;;4.34;100.00;103608.28;5252615;28;20025;-73
2023/02/13 08:38:17;;;;;;;36.88;24.98;;;;;;;4.45;100.00;103604.69;5245871;28;20051;-73
2023/02/13 08:40:48;;;;;;;34.88;24.13;;;;;;;4.56;100.00;103610.56;5250743;28;20120;-73
2023/02/13 08:43:20;;;;;;;36.13;24.00;;;;;;;4.57;100.00;103614.88;5247548;28;20037;-73
2023/02/13 08:45:51;;;;;;;33.55;23.10;;;;;;;4.53;100.00;103610.59;5246948;28;20021;-73
2023/02/13 08:48:22;;;;;;;35.47;24.67;;;;;;;4.72;100.00;103622.44;5243197;28;20536;-74
2023/02/13 08:50:53;;;;;;;32.63;24.23;;;;;;;4.82;100.00;103616.22;5240660;28;20060;-73
2023/02/13 08:53:25;;;;;;;37.38;24.33;;;;;;;4.92;100.00;103610.84;5238250;28;20071;-74
2023/02/13 08:55:56;;;;;;;39.33;25.73;;;;;;;5.09;100.00;103599.28;5240608;28;20318;-74
2023/02/13 08:58:27;;;;;;;35.75;24.42;;;;;;;5.19;100.00;103614.72;5249423;28;20039;-73
2023/02/13 09:00:59;;;;;;;36.67;24.52;;;;;;;5.29;100.00;103614.53;5235290;28;20025;-74
2023/02/13 09:03:30;;;;;;;36.53;25.75;;;;;;;5.35;100.00;103616.19;5243170;28;20041;-73
2023/02/13 09:06:02;;;;;;;31.85;23.80;;;;;;;5.38;100.00;103610.94;5245234;28;20025;-74
2023/02/13 09:08:34;;;;;;;34.17;25.08;;;;;;;5.54;100.00;103604.53;5248037;28;20040;-74
2023/02/13 09:11:06;;;;;;;34.58;25.20;;;;;;;5.65;100.00;103603.47;5242715;28;20025;-73
2023/02/13 09:13:37;;;;;;;34.97;25.58;;;;;;;5.73;100.00;103605.03;5250112;28;20094;-74
2023/02/13 09:16:10;;;;;;;33.67;25.48;;;;;;;5.85;100.00;103614.31;5250316;28;20021;-74
2023/02/13 09:18:41;;;;;;;35.92;25.10;;;;;;;5.95;100.00;103608.09;5245241;28;20147;-74
2023/02/13 09:21:13;;;;;;;35.90;24.23;;;;;;;6.12;100.00;103610.31;5244810;28;20108;-73
2023/02/13 09:23:44;;;;;;;32.55;24.92;;;;;;;6.03;100.00;103602.72;5241118;28;20056;-74
2023/02/13 09:26:17;;;;;;;32.17;23.48;;;;;;;6.17;100.00;103610.22;5239382;28;20131;-74
2023/02/13 09:28:48;;;;;;;34.63;23.25;;;;;;;6.27;100.00;103609.13;5238727;28;20466;-74
2023/02/13 09:31:20;;;;;;;35.13;24.35;;;;;;;6.35;100.00;103615.00;5241307;28;20047;-74
2023/02/13 09:33:51;;;;;;;30.80;22.35;;;;;;;6.40;100.00;103610.53;5248445;28;20024;-74
2023/02/13 09:36:23;;;;;;;30.88;22.45;;;;;;;6.52;100.00;103618.09;5245064;28;20028;-74
2023/02/13 09:38:56;;;;;;;29.58;22.23;;;;;;;6.61;100.00;103614.41;5250608;28;20075;-74
2023/02/13 09:41:31;;;;;;;39.45;24.58;;;;;;;6.75;100.00;103622.75;5251736;28;20033;-74
2023/02/13 09:44:33;;;;;;;33.28;23.83;;;;;;;6.88;100.00;103604.22;5249210;28;20109;-74
2023/02/13 09:47:14;;;;;;;29.92;22.13;;;;;;;6.92;100.00;103611.91;5246315;28;20107;-74
2023/02/13 09:49:51;;;;;;;27.65;21.10;;;;;;;6.95;100.00;103614.44;5244440;28;20516;-73
2023/02/13 09:52:26;;;;;;;29.15;21.67;;;;;;;6.92;100.00;103613.66;5241878;28;20539;-74
2023/02/13 09:54:58;;;;;;;25.52;19.23;;;;;;;6.93;100.00;103612.75;5246502;28;20136;-74
2023/02/13 09:57:35;;;;;;;25.40;18.63;;;;;;;7.10;100.00;103618.41;5247644;28;20132;-74
2023/02/13 10:00:38;;;;;;;27.33;18.85;;;;;;;7.29;100.00;103614.44;5238410;28;20038;-74
2023/02/13 10:03:30;;;;;;;26.98;19.83;;;;;;;7.36;100.00;103617.72;5245794;28;20029;-75
2023/02/13 10:06:08;;;;;;;25.42;19.23;;;;;;;7.32;100.00;103622.16;5244939;28;20043;-74
2023/02/13 10:09:15;;;;;;;25.70;19.20;;;;;;;7.54;100.00;103622.47;5248626;28;20021;-74
2023/02/13 10:12:06;;;;;;;25.45;19.00;;;;;;;7.51;100.00;103625.13;5242345;28;20037;-74
2023/02/13 10:14:40;;;;;;;25.23;18.25;;;;;;;7.57;100.00;103624.94;5245718;28;20033;-74
2023/02/13 10:17:31;;;;;;;24.25;18.23;;;;;;;7.82;100.00;103623.44;5242215;28;20491;-74
2023/02/13 10:20:16;;;;;;;23.17;18.20;;;;;;;7.84;100.00;103622.50;5244710;28;20064;-72
2023/02/13 10:22:55;;;;;;;25.40;18.23;;;;;;;7.96;100.00;103621.28;5245674;28;20048;-72
2023/02/13 10:25:32;;;;;;;24.73;18.60;;;;;;;7.97;100.00;103616.00;5229217;28;20047;-72
2023/02/13 10:28:11;;;;;;;24.08;17.08;;;;;;;8.27;100.00;103613.38;5241419;28;20025;-72
2023/02/13 10:30:50;;;;;;;24.02;18.30;;;;;;;8.35;100.00;103606.16;5237803;28;20096;-72
2023/02/13 10:33:27;;;;;;;22.85;18.23;;;;;;;8.45;100.00;103610.22;5245057;28;20112;-72
2023/02/13 10:36:11;;;;;;;23.85;18.50;;;;;;;8.58;100.00;103604.59;5246284;28;20027;-72
2023/02/13 10:38:45;;;;;;;23.40;17.83;;;;;;;8.72;100.00;103611.09;5239755;28;20065;-72
2023/02/13 10:41:36;;;;;;;23.90;18.17;;;;;;;8.94;100.00;103608.63;5243058;28;20033;-72
2023/02/13 10:44:31;;;;;;;22.88;18.13;;;;;;;9.17;100.00;103599.16;5247799;28;20052;-72
2023/02/13 10:47:24;;;;;;;21.40;17.73;;;;;;;9.14;100.00;103609.72;5247170;28;20032;-72
2023/02/13 10:50:39;;;;;;;22.58;16.98;;;;;;;9.36;100.00;103592.34;5233859;28;20124;-72
2023/02/13 10:53:25;;;;;;;27.23;19.42;;;;;;;9.35;100.00;103589.78;5261566;22;20009;-71
2023/02/13 10:56:16;;;;;;;23.52;18.92;;;;;;;9.40;100.00;103590.47;5239167;28;20029;-71
2023/02/13 10:59:06;;;;;;;21.75;17.95;;;;;;;9.24;100.00;103588.41;5249058;28;20032;-71
2023/02/13 11:01:56;;;;;;;24.55;19.27;;;;;;;9.47;100.00;103584.97;5244946;28;20033;-71
2023/02/13 11:04:28;;;;;;;24.52;19.80;;;;;;;9.45;100.00;103588.53;5244133;28;20036;-71
2023/02/13 11:07:03;;;;;;;22.27;17.77;;;;;;;9.71;100.00;103588.44;5248183;28;20389;-71
2023/02/13 11:09:40;;;;;;;24.17;18.55;;;;;;;9.77;100.00;103586.50;5246223;28;20082;-71
2023/02/13 11:12:33;;;;;;;22.40;18.02;;;;;;;10.11;100.00;103584.28;5242624;28;20120;-71
2023/02/13 11:15:07;;;;;;;21.50;16.42;;;;;;;10.00;100.00;103578.63;5240971;28;20036;-71
2023/02/13 11:17:41;;;;;;;20.95;15.07;;;;;;;9.96;100.00;103563.94;5242825;28;20032;-71
2023/02/13 11:20:25;;;;;;;18.55;15.27;;;;;;;10.30;100.00;103566.09;5247081;28;20059;-71
2023/02/13 11:23:32;;;;;;;17.40;14.48;;;;;;;10.40;100.00;103562.22;5239994;28;20040;-71
2023/02/13 11:26:10;;;;;;;21.30;14.88;;;;;;;10.33;100.00;103555.50;5246452;28;20393;-70
2023/02/13 11:29:21;;;;;;;19.42;14.77;;;;;;;10.75;100.00;103554.66;5245792;28;20057;-71
2023/02/13 11:32:06;;;;;;;18.13;14.23;;;;;;;10.76;100.00;103550.25;5215867;28;20706;-71
2023/02/13 11:34:38;;;;;;;18.33;14.63;;;;;;;10.71;100.00;103547.81;5240045;28;20039;-71
2023/02/13 11:37:12;;;;;;;15.75;13.10;;;;;;;10.94;100.00;103552.09;5223969;28;20093;-71
2023/02/13 11:39:46;;;;;;;18.30;14.88;;;;;;;10.99;100.00;103557.16;5245937;28;20018;-71
2023/02/13 11:42:36;;;;;;;17.52;13.77;;;;;;;11.04;100.00;103539.44;5245988;28;20032;-71
2023/02/13 11:45:21;;;;;;;19.48;14.40;;;;;;;11.32;100.00;103539.91;5241784;28;20365;-71
2023/02/13 11:47:54;;;;;;;18.48;14.82;;;;;;;11.27;100.00;103544.53;5242313;28;20029;-71
2023/02/13 11:50:33;;;;;;;17.00;13.95;;;;;;;11.40;100.00;103532.56;5241552;28;20021;-71
2023/02/13 11:53:19;;;;;;;17.25;13.15;;;;;;;11.57;100.00;103537.03;5239859;28;20446;-71
2023/02/13 11:56:07;;;;;;;16.50;13.32;;;;;;;11.79;100.00;103543.94;5235241;28;20036;-73
2023/02/13 11:58:39;;;;;;;20.30;13.38;;;;;;;11.65;100.00;103544.56;5244413;28;20112;-70
2023/02/13 12:01:19;;;;;;;15.93;12.27;;;;;;;11.83;100.00;103537.59;5245373;28;20504;-70
2023/02/13 12:04:03;;;;;;;14.68;12.60;;;;;;;11.89;100.00;103529.44;5240324;28;20032;-71
2023/02/13 12:06:38;;;;;;;15.95;12.45;;;;;;;11.63;100.00;103536.75;5245226;28;20051;-71
2023/02/13 12:09:14;;;;;;;14.20;11.07;;;;;;;11.79;100.00;103528.16;5244683;28;20025;-70
2023/02/13 12:11:49;;;;;;;16.95;12.93;;;;;;;11.79;100.00;103528.16;5240698;28;20022;-71
2023/02/13 12:14:24;;;;;;;15.02;11.65;;;;;;;11.89;100.00;103514.56;5228809;28;20034;-71
2023/02/13 12:17:27;;;;;;;16.98;13.52;;;;;;;12.03;100.00;103526.16;5245203;28;20069;-70
2023/02/13 12:19:59;;;;;;;14.30;11.45;;;;;;;12.06;100.00;103516.38;5224031;28;20060;-71
2023/02/13 12:22:41;;;;;;;15.57;11.85;;;;;;;12.32;100.00;103522.13;5245682;28;20453;-70
2023/02/13 12:25:28;;;;;;;15.10;12.52;;;;;;;12.32;100.00;103514.25;5242451;28;20119;-71
2023/02/13 12:28:21;;;;;;;17.55;12.48;;;;;;;12.52;100.00;103502.72;5245474;28;20026;-71
2023/02/13 12:31:22;;;;;;;14.23;11.90;;;;;;;12.49;100.00;103498.47;5244847;28;20021;-70
2023/02/13 12:34:24;;;;;;;15.57;12.15;;;;;;;12.70;100.00;103493.91;5245036;28;20390;-71